sensor_id;sensor_type;location;lat;lon;timestamp;temperature;humidity
18434;DHT22;9344;52.294;13.626;2022-11-27T00:01:58;8.40;99.90
18434;DHT22;9344;52.294;13.626;2022-11-27T00:04:24;8.50;99.90
18434;DHT22;9344;52.294;13.626;2022-11-27T00:06:52;8.40;99.90
18434;DHT22;9344;52.294;13.626;2022-11-27T00:09:19;8.40;99.90
18434;DHT22;9344;52.294;13.626;2022-11-27T00:11:45;8.40;99.90
18434;DHT22;9344;52.294;13.626;2022-11-27T00:14:13;8.40;99.90
18434;DHT22;9344;52.294;13.626;2022-11-27T00:16:40;8.50;99.90
18434;DHT22;9344;52.294;13.626;2022-11-27T00:19:08;8.50;99.90
18434;DHT22;9344;52.294;13.626;2022-11-27T00:21:35;8.40;99.90
18434;DHT22;9344;52.294;13.626;2022-11-27T00:24:06;8.40;99.90
18434;DHT22;9344;52.294;13.626;2022-11-27T00:26:33;8.40;99.90
18434;DHT22;9344;52.294;13.626;2022-11-27T00:29:00;8.50;99.90
18434;DHT22;9344;52.294;13.626;2022-11-27T00:31:28;8.50;99.90
18434;DHT22;9344;52.294;13.626;2022-11-27T00:33:57;8.50;99.90
18434;DHT22;9344;52.294;13.626;2022-11-27T00:36:24;8.50;99.90
18434;DHT22;9344;52.294;13.626;2022-11-27T00:38:51;8.50;99.90
18434;DHT22;9344;52.294;13.626;2022-11-27T00:41:21;8.40;99.90
18434;DHT22;9344;52.294;13.626;2022-11-27T00:43:48;8.50;99.90
18434;DHT22;9344;52.294;13.626;2022-11-27T00:46:16;8.40;99.90
18434;DHT22;9344;52.294;13.626;2022-11-27T00:48:43;8.40;99.90
18434;DHT22;9344;52.294;13.626;2022-11-27T00:51:12;8.40;99.90
18434;DHT22;9344;52.294;13.626;2022-11-27T00:53:39;8.40;99.90
18434;DHT22;9344;52.294;13.626;2022-11-27T00:56:06;8.40;99.90
18434;DHT22;9344;52.294;13.626;2022-11-27T00:58:34;8.40;99.90
18434;DHT22;9344;52.294;13.626;2022-11-27T01:01:03;8.30;99.90
18434;DHT22;9344;52.294;13.626;2022-11-27T01:03:31;8.40;99.90
18434;DHT22;9344;52.294;13.626;2022-11-27T01:06:01;8.30;99.90
18434;DHT22;9344;52.294;13.626;2022-11-27T01:08:27;8.30;99.90
18434;DHT22;9344;52.294;13.626;2022-11-27T01:10:56;8.30;99.90
18434;DHT22;9344;52.294;13.626;2022-11-27T01:13:24;8.30;99.90
18434;DHT22;9344;52.294;13.626;2022-11-27T01:15:59;8.30;99.90
18434;DHT22;9344;52.294;13.626;2022-11-27T01:18:25;8.30;99.90
18434;DHT22;9344;52.294;13.626;2022-11-27T01:20:52;8.20;99.90
18434;DHT22;9344;52.294;13.626;2022-11-27T01:23:18;8.20;99.90
18434;DHT22;9344;52.294;13.626;2022-11-27T01:25:45;8.20;99.90
18434;DHT22;9344;52.294;13.626;2022-11-27T01:28:12;8.20;99.90
18434;DHT22;9344;52.294;13.626;2022-11-27T01:30:39;8.20;99.90
18434;DHT22;9344;52.294;13.626;2022-11-27T01:33:07;8.20;99.90
18434;DHT22;9344;52.294;13.626;2022-11-27T01:35:34;8.20;99.90
18434;DHT22;9344;52.294;13.626;2022-11-27T01:38:00;8.20;99.90
18434;DHT22;9344;52.294;13.626;2022-11-27T01:40:27;8.20;99.90
18434;DHT22;9344;52.294;13.626;2022-11-27T01:42:53;8.10;99.90
18434;DHT22;9344;52.294;13.626;2022-11-27T01:45:20;8.20;99.90
18434;DHT22;9344;52.294;13.626;2022-11-27T01:47:50;8.20;99.90
18434;DHT22;9344;52.294;13.626;2022-11-27T01:50:22;8.20;99.90
18434;DHT22;9344;52.294;13.626;2022-11-27T01:52:53;8.20;99.90
18434;DHT22;9344;52.294;13.626;2022-11-27T01:55:26;8.10;99.90
18434;DHT22;9344;52.294;13.626;2022-11-27T01:57:56;8.10;99.90
18434;DHT22;9344;52.294;13.626;2022-11-27T02:00:24;8.10;99.90
18434;DHT22;9344;52.294;13.626;2022-11-27T02:02:50;8.10;99.90
18434;DHT22;9344;52.294;13.626;2022-11-27T02:05:20;8.10;99.90
18434;DHT22;9344;52.294;13.626;2022-11-27T02:07:48;8.00;99.90
18434;DHT22;9344;52.294;13.626;2022-11-27T02:10:16;8.00;99.90
18434;DHT22;9344;52.294;13.626;2022-11-27T02:12:51;8.00;99.90
18434;DHT22;9344;52.294;13.626;2022-11-27T02:15:25;8.00;99.90
18434;DHT22;9344;52.294;13.626;2022-11-27T02:18:00;8.00;99.90
18434;DHT22;9344;52.294;13.626;2022-11-27T02:20:39;8.00;99.90
18434;DHT22;9344;52.294;13.626;2022-11-27T02:23:26;8.00;99.90
18434;DHT22;9344;52.294;13.626;2022-11-27T02:29:02;7.90;99.90
18434;DHT22;9344;52.294;13.626;2022-11-27T02:31:35;7.90;99.90
18434;DHT22;9344;52.294;13.626;2022-11-27T02:34:19;7.90;99.90
18434;DHT22;9344;52.294;13.626;2022-11-27T02:36:51;7.90;99.90
18434;DHT22;9344;52.294;13.626;2022-11-27T02:39:21;7.90;99.90
18434;DHT22;9344;52.294;13.626;2022-11-27T02:41:54;7.90;99.90
18434;DHT22;9344;52.294;13.626;2022-11-27T02:44:26;7.80;99.90
18434;DHT22;9344;52.294;13.626;2022-11-27T02:46:55;7.70;99.90
18434;DHT22;9344;52.294;13.626;2022-11-27T02:49:22;7.60;99.90
18434;DHT22;9344;52.294;13.626;2022-11-27T02:51:54;7.60;99.90
18434;DHT22;9344;52.294;13.626;2022-11-27T02:54:25;7.60;99.90
18434;DHT22;9344;52.294;13.626;2022-11-27T02:56:54;7.60;99.90
18434;DHT22;9344;52.294;13.626;2022-11-27T02:59:24;7.60;99.90
18434;DHT22;9344;52.294;13.626;2022-11-27T03:01:55;7.60;99.90
18434;DHT22;9344;52.294;13.626;2022-11-27T03:04:26;7.70;99.90
18434;DHT22;9344;52.294;13.626;2022-11-27T03:06:56;7.70;99.90
18434;DHT22;9344;52.294;13.626;2022-11-27T03:09:28;7.70;99.90
18434;DHT22;9344;52.294;13.626;2022-11-27T03:11:57;7.70;99.90
18434;DHT22;9344;52.294;13.626;2022-11-27T03:14:25;7.70;99.90
18434;DHT22;9344;52.294;13.626;2022-11-27T03:16:59;7.70;99.90
18434;DHT22;9344;52.294;13.626;2022-11-27T03:19:31;7.70;99.90
18434;DHT22;9344;52.294;13.626;2022-11-27T03:22:01;7.70;99.90
18434;DHT22;9344;52.294;13.626;2022-11-27T03:24:31;7.70;99.90
18434;DHT22;9344;52.294;13.626;2022-11-27T03:26:58;7.70;99.90
18434;DHT22;9344;52.294;13.626;2022-11-27T03:29:29;7.70;99.90
18434;DHT22;9344;52.294;13.626;2022-11-27T03:31:56;7.50;99.90
18434;DHT22;9344;52.294;13.626;2022-11-27T03:34:23;7.40;99.90
18434;DHT22;9344;52.294;13.626;2022-11-27T03:36:49;7.30;99.90
18434;DHT22;9344;52.294;13.626;2022-11-27T03:39:16;7.30;99.90
18434;DHT22;9344;52.294;13.626;2022-11-27T03:41:49;7.20;99.90
18434;DHT22;9344;52.294;13.626;2022-11-27T03:44:21;7.20;99.90
18434;DHT22;9344;52.294;13.626;2022-11-27T03:47:00;7.10;99.90
18434;DHT22;9344;52.294;13.626;2022-11-27T03:49:37;7.10;99.90
18434;DHT22;9344;52.294;13.626;2022-11-27T03:52:11;7.10;99.90
18434;DHT22;9344;52.294;13.626;2022-11-27T03:54:45;7.20;99.90
18434;DHT22;9344;52.294;13.626;2022-11-27T03:57:20;7.20;99.90
18434;DHT22;9344;52.294;13.626;2022-11-27T03:59:50;7.20;99.90
18434;DHT22;9344;52.294;13.626;2022-11-27T04:02:27;7.20;99.90
18434;DHT22;9344;52.294;13.626;2022-11-27T04:04:55;7.20;99.90
18434;DHT22;9344;52.294;13.626;2022-11-27T04:07:22;7.20;99.90
18434;DHT22;9344;52.294;13.626;2022-11-27T04:09:48;7.30;99.90
18434;DHT22;9344;52.294;13.626;2022-11-27T04:12:15;7.20;99.90
18434;DHT22;9344;52.294;13.626;2022-11-27T04:14:41;7.20;99.90
18434;DHT22;9344;52.294;13.626;2022-11-27T04:17:08;7.20;99.90
18434;DHT22;9344;52.294;13.626;2022-11-27T04:19:36;7.10;99.90
18434;DHT22;9344;52.294;13.626;2022-11-27T04:22:02;7.10;99.90
18434;DHT22;9344;52.294;13.626;2022-11-27T04:24:29;7.10;99.90
18434;DHT22;9344;52.294;13.626;2022-11-27T04:26:55;7.10;99.90
18434;DHT22;9344;52.294;13.626;2022-11-27T04:29:22;7.10;99.90
18434;DHT22;9344;52.294;13.626;2022-11-27T04:31:48;7.10;99.90
18434;DHT22;9344;52.294;13.626;2022-11-27T04:34:15;7.10;99.90
18434;DHT22;9344;52.294;13.626;2022-11-27T04:36:43;7.10;99.90
18434;DHT22;9344;52.294;13.626;2022-11-27T04:39:10;7.00;99.90
18434;DHT22;9344;52.294;13.626;2022-11-27T04:41:37;7.10;99.90
18434;DHT22;9344;52.294;13.626;2022-11-27T04:44:04;7.00;99.90
18434;DHT22;9344;52.294;13.626;2022-11-27T04:46:31;7.10;99.90
18434;DHT22;9344;52.294;13.626;2022-11-27T04:48:57;7.10;99.90
18434;DHT22;9344;52.294;13.626;2022-11-27T04:51:24;7.10;99.90
18434;DHT22;9344;52.294;13.626;2022-11-27T04:53:52;7.10;99.90
18434;DHT22;9344;52.294;13.626;2022-11-27T04:56:18;7.10;99.90
18434;DHT22;9344;52.294;13.626;2022-11-27T04:58:45;7.10;99.90
18434;DHT22;9344;52.294;13.626;2022-11-27T05:01:11;7.10;99.90
18434;DHT22;9344;52.294;13.626;2022-11-27T05:03:38;7.10;99.90
18434;DHT22;9344;52.294;13.626;2022-11-27T05:06:05;7.10;99.90
18434;DHT22;9344;52.294;13.626;2022-11-27T05:08:32;7.10;99.90
18434;DHT22;9344;52.294;13.626;2022-11-27T05:11:01;7.10;99.90
18434;DHT22;9344;52.294;13.626;2022-11-27T05:13:28;7.10;99.90
18434;DHT22;9344;52.294;13.626;2022-11-27T05:15:56;7.10;99.90
18434;DHT22;9344;52.294;13.626;2022-11-27T05:18:22;7.00;99.90
18434;DHT22;9344;52.294;13.626;2022-11-27T05:20:55;7.00;99.90
18434;DHT22;9344;52.294;13.626;2022-11-27T05:23:21;7.10;99.90
18434;DHT22;9344;52.294;13.626;2022-11-27T05:25:48;7.00;99.90
18434;DHT22;9344;52.294;13.626;2022-11-27T05:28:16;7.00;99.90
18434;DHT22;9344;52.294;13.626;2022-11-27T05:30:42;7.00;99.90
18434;DHT22;9344;52.294;13.626;2022-11-27T05:33:09;6.90;99.90
18434;DHT22;9344;52.294;13.626;2022-11-27T05:35:35;6.80;99.90
18434;DHT22;9344;52.294;13.626;2022-11-27T05:38:02;6.80;99.90
18434;DHT22;9344;52.294;13.626;2022-11-27T05:40:28;6.90;99.90
18434;DHT22;9344;52.294;13.626;2022-11-27T05:42:55;6.90;99.90
18434;DHT22;9344;52.294;13.626;2022-11-27T05:45:23;6.80;99.90
18434;DHT22;9344;52.294;13.626;2022-11-27T05:47:49;6.90;99.90
18434;DHT22;9344;52.294;13.626;2022-11-27T05:50:16;6.80;99.90
18434;DHT22;9344;52.294;13.626;2022-11-27T05:52:43;6.80;99.90
18434;DHT22;9344;52.294;13.626;2022-11-27T05:55:09;6.80;99.90
18434;DHT22;9344;52.294;13.626;2022-11-27T05:57:36;6.70;99.90
18434;DHT22;9344;52.294;13.626;2022-11-27T06:00:04;6.70;99.90
18434;DHT22;9344;52.294;13.626;2022-11-27T06:02:32;6.70;99.90
18434;DHT22;9344;52.294;13.626;2022-11-27T06:04:59;6.60;99.90
18434;DHT22;9344;52.294;13.626;2022-11-27T06:07:25;6.60;99.90
18434;DHT22;9344;52.294;13.626;2022-11-27T06:09:52;6.50;99.90
18434;DHT22;9344;52.294;13.626;2022-11-27T06:12:18;6.40;99.90
18434;DHT22;9344;52.294;13.626;2022-11-27T06:14:45;6.40;99.90
18434;DHT22;9344;52.294;13.626;2022-11-27T06:17:11;6.40;99.90
18434;DHT22;9344;52.294;13.626;2022-11-27T06:19:42;6.30;99.90
18434;DHT22;9344;52.294;13.626;2022-11-27T06:22:08;6.30;99.90
18434;DHT22;9344;52.294;13.626;2022-11-27T06:24:35;6.20;99.90
18434;DHT22;9344;52.294;13.626;2022-11-27T06:27:02;6.10;99.90
18434;DHT22;9344;52.294;13.626;2022-11-27T06:29:28;6.10;99.90
18434;DHT22;9344;52.294;13.626;2022-11-27T06:31:55;6.10;99.90
18434;DHT22;9344;52.294;13.626;2022-11-27T06:34:21;6.10;99.90
18434;DHT22;9344;52.294;13.626;2022-11-27T06:36:49;6.20;99.90
18434;DHT22;9344;52.294;13.626;2022-11-27T06:39:15;6.20;99.90
18434;DHT22;9344;52.294;13.626;2022-11-27T06:41:42;6.20;99.90
18434;DHT22;9344;52.294;13.626;2022-11-27T06:44:09;6.20;99.90
18434;DHT22;9344;52.294;13.626;2022-11-27T06:46:36;6.20;99.90
18434;DHT22;9344;52.294;13.626;2022-11-27T06:49:02;6.20;99.90
18434;DHT22;9344;52.294;13.626;2022-11-27T06:51:30;6.30;99.90
18434;DHT22;9344;52.294;13.626;2022-11-27T06:53:59;6.20;99.90
18434;DHT22;9344;52.294;13.626;2022-11-27T06:56:28;6.20;99.90
18434;DHT22;9344;52.294;13.626;2022-11-27T06:58:56;6.20;99.90
18434;DHT22;9344;52.294;13.626;2022-11-27T07:01:24;6.10;99.90
18434;DHT22;9344;52.294;13.626;2022-11-27T07:03:51;6.10;99.90
18434;DHT22;9344;52.294;13.626;2022-11-27T07:06:22;6.10;99.90
18434;DHT22;9344;52.294;13.626;2022-11-27T07:08:49;6.10;99.90
18434;DHT22;9344;52.294;13.626;2022-11-27T07:11:19;6.00;99.90
18434;DHT22;9344;52.294;13.626;2022-11-27T07:13:47;5.90;99.90
18434;DHT22;9344;52.294;13.626;2022-11-27T07:16:15;5.90;99.90
18434;DHT22;9344;52.294;13.626;2022-11-27T07:18:43;5.90;99.90
18434;DHT22;9344;52.294;13.626;2022-11-27T07:21:11;5.90;99.90
18434;DHT22;9344;52.294;13.626;2022-11-27T07:23:38;5.80;99.90
18434;DHT22;9344;52.294;13.626;2022-11-27T07:26:05;5.80;99.90
18434;DHT22;9344;52.294;13.626;2022-11-27T07:28:33;5.80;99.90
18434;DHT22;9344;52.294;13.626;2022-11-27T07:31:00;5.80;99.90
18434;DHT22;9344;52.294;13.626;2022-11-27T07:33:27;5.80;99.90
18434;DHT22;9344;52.294;13.626;2022-11-27T07:35:57;5.80;99.90
18434;DHT22;9344;52.294;13.626;2022-11-27T07:38:24;5.80;99.90
18434;DHT22;9344;52.294;13.626;2022-11-27T07:40:51;5.80;99.90
18434;DHT22;9344;52.294;13.626;2022-11-27T07:43:17;5.80;99.90
18434;DHT22;9344;52.294;13.626;2022-11-27T07:45:45;5.80;99.90
18434;DHT22;9344;52.294;13.626;2022-11-27T07:48:12;5.90;99.90
18434;DHT22;9344;52.294;13.626;2022-11-27T07:50:38;5.80;99.90
18434;DHT22;9344;52.294;13.626;2022-11-27T07:53:05;5.90;99.90
18434;DHT22;9344;52.294;13.626;2022-11-27T07:55:32;5.90;99.90
18434;DHT22;9344;52.294;13.626;2022-11-27T07:57:58;5.90;99.90
18434;DHT22;9344;52.294;13.626;2022-11-27T08:00:25;5.90;99.90
18434;DHT22;9344;52.294;13.626;2022-11-27T08:02:53;5.90;99.90
18434;DHT22;9344;52.294;13.626;2022-11-27T08:05:19;5.90;99.90
18434;DHT22;9344;52.294;13.626;2022-11-27T08:07:46;5.90;99.90
18434;DHT22;9344;52.294;13.626;2022-11-27T08:10:12;5.90;99.90
18434;DHT22;9344;52.294;13.626;2022-11-27T08:12:39;5.80;99.90
18434;DHT22;9344;52.294;13.626;2022-11-27T08:15:06;5.90;99.90
18434;DHT22;9344;52.294;13.626;2022-11-27T08:17:33;5.90;99.90
18434;DHT22;9344;52.294;13.626;2022-11-27T08:20:01;6.00;99.90
18434;DHT22;9344;52.294;13.626;2022-11-27T08:22:28;6.00;99.90
18434;DHT22;9344;52.294;13.626;2022-11-27T08:24:55;6.00;99.90
18434;DHT22;9344;52.294;13.626;2022-11-27T08:27:22;6.00;99.90
18434;DHT22;9344;52.294;13.626;2022-11-27T08:29:48;6.00;99.90
18434;DHT22;9344;52.294;13.626;2022-11-27T08:32:15;5.90;99.90
18434;DHT22;9344;52.294;13.626;2022-11-27T08:34:41;6.00;99.90
18434;DHT22;9344;52.294;13.626;2022-11-27T08:37:09;6.00;99.90
18434;DHT22;9344;52.294;13.626;2022-11-27T08:39:35;6.00;99.90
18434;DHT22;9344;52.294;13.626;2022-11-27T08:42:02;6.10;99.90
18434;DHT22;9344;52.294;13.626;2022-11-27T08:44:29;6.20;99.90
18434;DHT22;9344;52.294;13.626;2022-11-27T08:46:55;6.10;99.90
18434;DHT22;9344;52.294;13.626;2022-11-27T08:49:22;6.10;99.90
18434;DHT22;9344;52.294;13.626;2022-11-27T08:51:48;6.20;99.90
18434;DHT22;9344;52.294;13.626;2022-11-27T08:54:16;6.10;99.90
18434;DHT22;9344;52.294;13.626;2022-11-27T08:56:43;6.20;99.90
18434;DHT22;9344;52.294;13.626;2022-11-27T08:59:10;6.20;99.90
18434;DHT22;9344;52.294;13.626;2022-11-27T09:01:37;6.20;99.90
18434;DHT22;9344;52.294;13.626;2022-11-27T09:04:03;6.20;99.90
18434;DHT22;9344;52.294;13.626;2022-11-27T09:06:31;6.00;99.90
18434;DHT22;9344;52.294;13.626;2022-11-27T09:09:00;6.00;99.90
18434;DHT22;9344;52.294;13.626;2022-11-27T09:11:29;6.10;99.90
18434;DHT22;9344;52.294;13.626;2022-11-27T09:13:57;6.10;99.90
18434;DHT22;9344;52.294;13.626;2022-11-27T09:16:24;6.30;99.90
18434;DHT22;9344;52.294;13.626;2022-11-27T09:18:51;6.20;99.90
18434;DHT22;9344;52.294;13.626;2022-11-27T09:21:19;6.30;99.90
18434;DHT22;9344;52.294;13.626;2022-11-27T09:23:46;6.40;99.90
18434;DHT22;9344;52.294;13.626;2022-11-27T09:26:15;6.30;99.90
18434;DHT22;9344;52.294;13.626;2022-11-27T09:28:43;6.40;99.90
18434;DHT22;9344;52.294;13.626;2022-11-27T09:31:12;6.50;99.90
18434;DHT22;9344;52.294;13.626;2022-11-27T09:33:40;6.50;99.90
18434;DHT22;9344;52.294;13.626;2022-11-27T09:36:09;6.50;99.90
18434;DHT22;9344;52.294;13.626;2022-11-27T09:38:36;6.60;99.90
18434;DHT22;9344;52.294;13.626;2022-11-27T09:41:12;6.60;99.90
18434;DHT22;9344;52.294;13.626;2022-11-27T09:43:46;6.70;99.90
18434;DHT22;9344;52.294;13.626;2022-11-27T09:46:21;6.70;99.90
18434;DHT22;9344;52.294;13.626;2022-11-27T09:48:50;6.80;99.90
18434;DHT22;9344;52.294;13.626;2022-11-27T09:51:24;6.80;99.90
18434;DHT22;9344;52.294;13.626;2022-11-27T09:53:57;6.80;99.90
18434;DHT22;9344;52.294;13.626;2022-11-27T09:56:25;6.80;99.90
18434;DHT22;9344;52.294;13.626;2022-11-27T09:58:56;6.80;99.90
18434;DHT22;9344;52.294;13.626;2022-11-27T10:01:25;6.80;99.90
18434;DHT22;9344;52.294;13.626;2022-11-27T10:03:53;6.80;99.90
18434;DHT22;9344;52.294;13.626;2022-11-27T10:06:27;6.80;99.90
18434;DHT22;9344;52.294;13.626;2022-11-27T10:09:06;6.90;99.90
18434;DHT22;9344;52.294;13.626;2022-11-27T10:11:45;7.00;99.90
18434;DHT22;9344;52.294;13.626;2022-11-27T10:14:26;7.00;99.90
18434;DHT22;9344;52.294;13.626;2022-11-27T10:17:01;7.00;99.90
18434;DHT22;9344;52.294;13.626;2022-11-27T10:19:33;7.00;99.90
18434;DHT22;9344;52.294;13.626;2022-11-27T10:22:04;7.10;99.90
18434;DHT22;9344;52.294;13.626;2022-11-27T10:24:36;7.20;99.90
18434;DHT22;9344;52.294;13.626;2022-11-27T10:27:13;7.30;99.90
18434;DHT22;9344;52.294;13.626;2022-11-27T10:29:46;7.30;99.90
18434;DHT22;9344;52.294;13.626;2022-11-27T10:32:15;7.30;99.90
18434;DHT22;9344;52.294;13.626;2022-11-27T10:34:45;7.30;99.90
18434;DHT22;9344;52.294;13.626;2022-11-27T10:37:16;7.50;99.90
18434;DHT22;9344;52.294;13.626;2022-11-27T10:39:47;7.40;99.90
18434;DHT22;9344;52.294;13.626;2022-11-27T10:42:18;7.40;99.90
18434;DHT22;9344;52.294;13.626;2022-11-27T10:44:51;7.40;99.90
18434;DHT22;9344;52.294;13.626;2022-11-27T10:47:22;7.50;99.90
18434;DHT22;9344;52.294;13.626;2022-11-27T10:49:49;7.50;99.90
18434;DHT22;9344;52.294;13.626;2022-11-27T10:52:17;7.50;99.90
18434;DHT22;9344;52.294;13.626;2022-11-27T10:54:53;7.60;99.90
18434;DHT22;9344;52.294;13.626;2022-11-27T11:00:18;7.60;99.90
18434;DHT22;9344;52.294;13.626;2022-11-27T11:02:46;7.60;99.90
18434;DHT22;9344;52.294;13.626;2022-11-27T11:05:19;7.70;99.90
18434;DHT22;9344;52.294;13.626;2022-11-27T11:07:54;7.70;99.90
18434;DHT22;9344;52.294;13.626;2022-11-27T11:10:26;7.90;99.90
18434;DHT22;9344;52.294;13.626;2022-11-27T11:13:13;7.90;99.90
18434;DHT22;9344;52.294;13.626;2022-11-27T11:15:52;7.90;99.90
18434;DHT22;9344;52.294;13.626;2022-11-27T11:18:20;7.90;99.90
18434;DHT22;9344;52.294;13.626;2022-11-27T11:20:49;8.00;99.90
18434;DHT22;9344;52.294;13.626;2022-11-27T11:23:22;8.10;99.90
18434;DHT22;9344;52.294;13.626;2022-11-27T11:25:51;8.10;99.90
18434;DHT22;9344;52.294;13.626;2022-11-27T11:28:19;8.10;99.90
18434;DHT22;9344;52.294;13.626;2022-11-27T11:30:55;8.20;99.90
18434;DHT22;9344;52.294;13.626;2022-11-27T11:33:23;8.30;99.90
18434;DHT22;9344;52.294;13.626;2022-11-27T11:35:51;8.30;99.90
18434;DHT22;9344;52.294;13.626;2022-11-27T11:38:28;8.30;99.90
18434;DHT22;9344;52.294;13.626;2022-11-27T11:41:00;8.30;99.90
18434;DHT22;9344;52.294;13.626;2022-11-27T11:43:29;8.20;99.90
18434;DHT22;9344;52.294;13.626;2022-11-27T11:46:05;8.20;99.90
18434;DHT22;9344;52.294;13.626;2022-11-27T11:48:33;8.30;99.90
18434;DHT22;9344;52.294;13.626;2022-11-27T11:51:02;8.30;99.90
18434;DHT22;9344;52.294;13.626;2022-11-27T11:53:33;8.40;99.90
18434;DHT22;9344;52.294;13.626;2022-11-27T11:56:10;8.50;99.90
18434;DHT22;9344;52.294;13.626;2022-11-27T11:58:51;8.60;99.90
18434;DHT22;9344;52.294;13.626;2022-11-27T12:01:31;8.60;99.90
18434;DHT22;9344;52.294;13.626;2022-11-27T12:04:06;8.70;99.90
18434;DHT22;9344;52.294;13.626;2022-11-27T12:06:46;8.70;99.90
18434;DHT22;9344;52.294;13.626;2022-11-27T12:09:26;8.80;99.90
18434;DHT22;9344;52.294;13.626;2022-11-27T12:12:00;8.80;99.90
18434;DHT22;9344;52.294;13.626;2022-11-27T12:14:40;8.80;99.90
18434;DHT22;9344;52.294;13.626;2022-11-27T12:17:22;8.80;99.90
18434;DHT22;9344;52.294;13.626;2022-11-27T12:20:00;8.90;99.90
18434;DHT22;9344;52.294;13.626;2022-11-27T12:22:52;8.90;99.90
18434;DHT22;9344;52.294;13.626;2022-11-27T12:25:28;8.90;99.90
18434;DHT22;9344;52.294;13.626;2022-11-27T12:28:07;9.00;99.90
18434;DHT22;9344;52.294;13.626;2022-11-27T12:30:43;8.90;99.90
18434;DHT22;9344;52.294;13.626;2022-11-27T12:33:33;9.00;99.90
18434;DHT22;9344;52.294;13.626;2022-11-27T12:36:07;8.90;99.90
18434;DHT22;9344;52.294;13.626;2022-11-27T12:38:49;9.10;99.90
18434;DHT22;9344;52.294;13.626;2022-11-27T12:41:33;9.00;99.90
18434;DHT22;9344;52.294;13.626;2022-11-27T12:44:02;8.90;99.90
18434;DHT22;9344;52.294;13.626;2022-11-27T12:46:34;8.80;99.90
18434;DHT22;9344;52.294;13.626;2022-11-27T12:49:13;8.80;99.90
18434;DHT22;9344;52.294;13.626;2022-11-27T12:51:43;8.80;99.90
18434;DHT22;9344;52.294;13.626;2022-11-27T12:54:16;8.80;99.90
18434;DHT22;9344;52.294;13.626;2022-11-27T12:56:46;9.70;99.90
18434;DHT22;9344;52.294;13.626;2022-11-27T12:59:20;8.80;99.90
18434;DHT22;9344;52.294;13.626;2022-11-27T13:01:54;8.90;99.90
18434;DHT22;9344;52.294;13.626;2022-11-27T13:04:28;8.90;99.90
18434;DHT22;9344;52.294;13.626;2022-11-27T13:07:01;8.90;99.90
18434;DHT22;9344;52.294;13.626;2022-11-27T13:09:38;8.90;99.90
18434;DHT22;9344;52.294;13.626;2022-11-27T13:12:08;8.90;99.90
18434;DHT22;9344;52.294;13.626;2022-11-27T13:14:37;8.90;99.90
18434;DHT22;9344;52.294;13.626;2022-11-27T13:17:08;8.90;99.90
18434;DHT22;9344;52.294;13.626;2022-11-27T13:19:43;9.00;99.90
18434;DHT22;9344;52.294;13.626;2022-11-27T13:22:13;9.10;99.90
18434;DHT22;9344;52.294;13.626;2022-11-27T13:24:40;9.10;99.90
18434;DHT22;9344;52.294;13.626;2022-11-27T13:27:09;9.20;99.90
18434;DHT22;9344;52.294;13.626;2022-11-27T13:29:42;9.30;99.90
18434;DHT22;9344;52.294;13.626;2022-11-27T13:32:18;9.30;99.90
18434;DHT22;9344;52.294;13.626;2022-11-27T13:34:47;9.40;99.90
18434;DHT22;9344;52.294;13.626;2022-11-27T13:37:27;9.40;99.90
18434;DHT22;9344;52.294;13.626;2022-11-27T13:40:00;9.50;99.90
18434;DHT22;9344;52.294;13.626;2022-11-27T13:42:28;9.50;99.90
18434;DHT22;9344;52.294;13.626;2022-11-27T13:44:57;9.50;99.90
18434;DHT22;9344;52.294;13.626;2022-11-27T13:47:26;9.50;99.90
18434;DHT22;9344;52.294;13.626;2022-11-27T13:50:01;9.60;99.90
18434;DHT22;9344;52.294;13.626;2022-11-27T13:52:28;9.60;99.90
18434;DHT22;9344;52.294;13.626;2022-11-27T13:54:57;9.50;99.90
18434;DHT22;9344;52.294;13.626;2022-11-27T13:57:25;9.50;99.90
18434;DHT22;9344;52.294;13.626;2022-11-27T14:00:00;9.60;99.90
18434;DHT22;9344;52.294;13.626;2022-11-27T14:02:39;9.60;99.90
18434;DHT22;9344;52.294;13.626;2022-11-27T14:05:08;9.50;99.90
18434;DHT22;9344;52.294;13.626;2022-11-27T14:07:37;9.50;99.90
18434;DHT22;9344;52.294;13.626;2022-11-27T14:10:08;9.40;99.90
18434;DHT22;9344;52.294;13.626;2022-11-27T14:12:35;9.40;99.90
18434;DHT22;9344;52.294;13.626;2022-11-27T14:15:06;9.30;99.90
18434;DHT22;9344;52.294;13.626;2022-11-27T14:17:35;9.30;99.90
18434;DHT22;9344;52.294;13.626;2022-11-27T14:20:17;9.20;99.90
18434;DHT22;9344;52.294;13.626;2022-11-27T14:22:47;9.20;99.90
18434;DHT22;9344;52.294;13.626;2022-11-27T14:25:18;9.10;99.90
18434;DHT22;9344;52.294;13.626;2022-11-27T14:27:46;9.00;99.90
18434;DHT22;9344;52.294;13.626;2022-11-27T14:30:29;8.90;99.90
18434;DHT22;9344;52.294;13.626;2022-11-27T14:32:55;8.80;99.90
18434;DHT22;9344;52.294;13.626;2022-11-27T14:35:24;8.80;99.90
18434;DHT22;9344;52.294;13.626;2022-11-27T14:37:52;8.70;99.90
18434;DHT22;9344;52.294;13.626;2022-11-27T14:40:21;8.70;99.90
18434;DHT22;9344;52.294;13.626;2022-11-27T14:42:49;8.70;99.90
18434;DHT22;9344;52.294;13.626;2022-11-27T14:45:18;8.70;99.90
18434;DHT22;9344;52.294;13.626;2022-11-27T14:47:47;8.60;99.90
18434;DHT22;9344;52.294;13.626;2022-11-27T14:50:15;8.60;99.90
18434;DHT22;9344;52.294;13.626;2022-11-27T14:52:43;8.60;99.90
18434;DHT22;9344;52.294;13.626;2022-11-27T14:55:14;8.50;99.90
18434;DHT22;9344;52.294;13.626;2022-11-27T14:57:42;8.40;99.90
18434;DHT22;9344;52.294;13.626;2022-11-27T15:00:15;8.40;99.90
18434;DHT22;9344;52.294;13.626;2022-11-27T15:02:43;8.30;99.90
18434;DHT22;9344;52.294;13.626;2022-11-27T15:05:17;8.20;99.90
18434;DHT22;9344;52.294;13.626;2022-11-27T15:07:44;8.20;99.90
18434;DHT22;9344;52.294;13.626;2022-11-27T15:10:22;8.20;99.90
18434;DHT22;9344;52.294;13.626;2022-11-27T15:12:49;8.20;99.90
18434;DHT22;9344;52.294;13.626;2022-11-27T15:15:19;8.10;99.90
18434;DHT22;9344;52.294;13.626;2022-11-27T15:17:49;8.00;99.90
18434;DHT22;9344;52.294;13.626;2022-11-27T15:20:20;8.00;99.90
18434;DHT22;9344;52.294;13.626;2022-11-27T15:22:48;7.90;99.90
18434;DHT22;9344;52.294;13.626;2022-11-27T15:25:32;7.80;99.90
18434;DHT22;9344;52.294;13.626;2022-11-27T15:27:59;7.70;99.90
18434;DHT22;9344;52.294;13.626;2022-11-27T15:30:26;7.60;99.90
18434;DHT22;9344;52.294;13.626;2022-11-27T15:32:53;7.60;99.90
18434;DHT22;9344;52.294;13.626;2022-11-27T15:35:23;7.60;99.90
18434;DHT22;9344;52.294;13.626;2022-11-27T15:37:50;7.50;99.90
18434;DHT22;9344;52.294;13.626;2022-11-27T15:40:36;7.40;99.90
18434;DHT22;9344;52.294;13.626;2022-11-27T15:43:08;7.40;99.90
18434;DHT22;9344;52.294;13.626;2022-11-27T15:45:35;7.30;99.90
18434;DHT22;9344;52.294;13.626;2022-11-27T15:48:02;7.20;99.90
18434;DHT22;9344;52.294;13.626;2022-11-27T15:50:29;7.20;99.90
18434;DHT22;9344;52.294;13.626;2022-11-27T15:52:56;7.20;99.90
18434;DHT22;9344;52.294;13.626;2022-11-27T15:55:24;7.10;99.90
18434;DHT22;9344;52.294;13.626;2022-11-27T15:57:52;7.10;99.90
18434;DHT22;9344;52.294;13.626;2022-11-27T16:00:20;7.10;99.90
18434;DHT22;9344;52.294;13.626;2022-11-27T16:02:47;6.90;99.90
18434;DHT22;9344;52.294;13.626;2022-11-27T16:05:13;6.80;99.90
18434;DHT22;9344;52.294;13.626;2022-11-27T16:07:40;6.90;99.90